Zhang Ping, China
Current Conditions -  °F | °C
As of 10:00 PM on Tuesday 27 Jan 2015 (Local Time) from ZSAM Reporting Station
Broken Clouds Broken Clouds  
Wind Chill: 57°   Ceiling: 3000
Heat Index: 57°   Visibility: 6mi
Dew Point: 50°   Wind: 16mph
Humidity: 77%   Direction: 70°ENE
Pressure: 30.12"   Gusts: NA
Location:  25.3°N, 117.4°E
Report Text: ZSAM 271400Z 07007MPS 9999 BKN030 14/10 Q1020 NOSIG
Loading
Personal Weather Stations






























Interactive Weather Map New forecast layout! Learn more

10-Day Weather Forecast

Advertisements
Track Severe Weather on mobile